Time,TemperatureF,DewpointF,PressureIn,WindDirection,WindDirectionDegrees,WindSpeedMPH,WindSpeedGustMPH,Humidity,HourlyPrecipIn,Conditions,Clouds,dailyrainin,SoftwareType,DateUTC
2013-02-10 00:00:00,8.6,6.0,30.27,South,179,0.0,0.0,89,0.00,RA,,0.00,WeatherDisplay:10.37,2013-02-10 05:00:00,
2013-02-10 00:05:00,8.5,6.2,30.26,South,179,0.0,0.0,90,0.00,RA,,0.00,WeatherDisplay:10.37,2013-02-10 05:05:00,
2013-02-10 00:10:00,8.5,6.2,30.26,South,179,0.0,0.0,90,0.00,CLR,,0.00,WeatherDisplay:10.37,2013-02-10 05:10:00,
2013-02-10 00:15:00,8.4,5.8,30.26,South,179,0.0,0.0,89,0.00,CLR,,0.00,WeatherDisplay:10.37,2013-02-10 05:15:00,
2013-02-10 00:20:00,8.2,5.6,30.26,South,179,0.0,0.0,89,0.00,CLR,,0.00,WeatherDisplay:10.37,2013-02-10 05:20:00,
2013-02-10 00:25:00,7.9,5.3,30.26,South,179,0.0,0.0,89,0.00,CLR,,0.00,WeatherDisplay:10.37,2013-02-10 05:25:00,
2013-02-10 00:30:00,7.7,5.1,30.26,South,179,0.0,0.0,89,0.00,CLR,,0.00,WeatherDisplay:10.37,2013-02-10 05:30:00,
2013-02-10 00:35:00,7.7,5.1,30.26,South,179,0.0,0.0,89,0.00,CLR,,0.00,WeatherDisplay:10.37,2013-02-10 05:35:00,
2013-02-10 00:40:00,7.7,5.1,30.26,South,179,0.0,0.0,89,0.00,CLR,,0.00,WeatherDisplay:10.37,2013-02-10 05:40:00,
2013-02-10 00:45:00,7.5,4.9,30.26,South,179,0.0,0.0,89,0.00,CLR,,0.00,WeatherDisplay:10.37,2013-02-10 05:45:00,
2013-02-10 00:50:00,7.4,4.8,30.26,South,179,0.0,0.0,89,0.00,CLR,,0.00,WeatherDisplay:10.37,2013-02-10 05:50:00,
2013-02-10 00:55:00,7.2,4.6,30.26,South,179,0.0,0.0,89,0.00,CLR,,0.00,WeatherDisplay:10.37,2013-02-10 05:55:00,
2013-02-10 01:00:00,7.2,4.6,30.25,South,179,0.0,0.0,89,0.00,CLR,,0.00,WeatherDisplay:10.37,2013-02-10 06:00:00,
2013-02-10 01:05:00,7.2,4.6,30.25,South,179,0.0,0.0,89,0.00,CLR,,0.00,WeatherDisplay:10.37,2013-02-10 06:05:00,
2013-02-10 01:10:00,7.2,4.6,30.25,South,179,0.0,0.0,89,0.00,CLR,,0.00,WeatherDisplay:10.37,2013-02-10 06:10:00,
2013-02-10 01:15:00,7.2,4.6,30.25,South,179,0.0,0.0,89,0.00,CLR,,0.00,WeatherDisplay:10.37,2013-02-10 06:15:00,
2013-02-10 01:20:00,7.1,4.5,30.25,South,179,0.0,0.0,89,0.00,CLR,,0.00,WeatherDisplay:10.37,2013-02-10 06:20:00,
2013-02-10 01:25:00,7.2,4.9,30.25,South,179,0.0,0.0,90,0.00,CLR,,0.00,WeatherDisplay:10.37,2013-02-10 06:25:00,
2013-02-10 01:30:00,7.3,5.0,30.24,South,179,0.0,0.0,90,0.00,CLR,,0.00,WeatherDisplay:10.37,2013-02-10 06:30:00,
2013-02-10 01:35:00,7.2,4.6,30.24,South,179,0.0,0.0,89,0.00,CLR,,0.00,WeatherDisplay:10.37,2013-02-10 06:35:00,
2013-02-10 01:40:00,6.9,4.3,30.24,South,179,0.0,0.0,89,0.00,CLR,,0.00,WeatherDisplay:10.37,2013-02-10 06:40:00,
2013-02-10 01:45:00,6.6,4.0,30.24,South,179,0.0,0.0,89,0.00,CLR,,0.00,WeatherDisplay:10.37,2013-02-10 06:45:00,
2013-02-10 01:50:00,6.3,3.8,30.24,South,179,0.0,0.0,89,0.00,CLR,,0.00,WeatherDisplay:10.37,2013-02-10 06:50:00,
2013-02-10 01:55:00,6.1,3.6,30.23,South,179,0.0,0.0,89,0.00,CLR,,0.00,WeatherDisplay:10.37,2013-02-10 06:55:00,
2013-02-10 02:00:00,6.1,3.6,30.23,South,179,0.0,0.0,89,0.00,CLR,,0.00,WeatherDisplay:10.37,2013-02-10 07:00:00,
2013-02-10 02:05:00,5.9,3.4,30.23,South,179,0.0,0.0,89,0.00,CLR,,0.00,WeatherDisplay:10.37,2013-02-10 07:05:00,
2013-02-10 02:10:00,5.8,3.3,30.23,South,179,0.0,0.0,89,0.00,CLR,,0.00,WeatherDisplay:10.37,2013-02-10 07:10:00,
2013-02-10 02:15:00,5.7,3.2,30.23,South,179,0.0,0.0,89,0.00,CLR,,0.00,WeatherDisplay:10.37,2013-02-10 07:15:00,
2013-02-10 02:20:00,5.7,3.2,30.23,South,179,0.0,0.0,89,0.00,CLR,,0.00,WeatherDisplay:10.37,2013-02-10 07:20:00,
2013-02-10 02:25:00,5.7,3.2,30.23,South,179,0.0,0.0,89,0.00,CLR,,0.00,WeatherDisplay:10.37,2013-02-10 07:25:00,
2013-02-10 02:30:00,5.6,3.1,30.23,South,179,0.0,0.0,89,0.00,CLR,,0.00,WeatherDisplay:10.37,2013-02-10 07:30:00,
2013-02-10 02:35:00,5.4,2.9,30.23,South,179,0.0,0.0,89,0.00,CLR,,0.00,WeatherDisplay:10.37,2013-02-10 07:35:00,
2013-02-10 02:40:00,5.3,2.8,30.22,South,179,0.0,0.0,89,0.00,CLR,,0.00,WeatherDisplay:10.37,2013-02-10 07:40:00,
2013-02-10 02:45:00,4.9,2.1,30.22,South,179,0.0,0.0,88,0.00,CLR,,0.00,WeatherDisplay:10.37,2013-02-10 07:45:00,
2013-02-10 02:50:00,4.9,2.4,30.23,South,179,0.0,0.0,89,0.00,CLR,,0.00,WeatherDisplay:10.37,2013-02-10 07:50:00,
2013-02-10 02:55:00,5.0,2.5,30.23,South,179,0.0,0.0,89,0.00,CLR,,0.00,WeatherDisplay:10.37,2013-02-10 07:55:00,
2013-02-10 03:00:00,4.9,2.4,30.22,South,179,0.0,0.0,89,0.00,CLR,,0.00,WeatherDisplay:10.37,2013-02-10 08:00:00,
2013-02-10 03:05:00,4.8,2.0,30.22,South,179,0.0,0.0,88,0.00,CLR,,0.00,WeatherDisplay:10.37,2013-02-10 08:05:00,
2013-02-10 03:11:00,4.5,1.7,30.22,South,179,0.0,0.0,88,0.00,CLR,,0.00,WeatherDisplay:10.37,2013-02-10 08:11:00,
2013-02-10 03:16:00,4.5,2.0,30.22,South,179,0.0,0.0,89,0.00,CLR,,0.00,WeatherDisplay:10.37,2013-02-10 08:16:00,
2013-02-10 03:21:00,4.5,2.0,30.22,South,179,0.0,0.0,89,0.00,CLR,,0.00,WeatherDisplay:10.37,2013-02-10 08:21:00,
2013-02-10 03:26:00,4.6,2.1,30.22,South,179,1.1,1.1,89,0.00,CLR,,0.00,WeatherDisplay:10.37,2013-02-10 08:26:00,
2013-02-10 03:31:00,4.8,2.3,30.22,South,179,0.0,0.0,89,0.00,CLR,,0.00,WeatherDisplay:10.37,2013-02-10 08:31:00,
2013-02-10 03:36:00,5.0,2.5,30.22,South,179,0.0,0.0,89,0.00,CLR,,0.00,WeatherDisplay:10.37,2013-02-10 08:36:00,
2013-02-10 03:41:00,5.3,2.8,30.22,South,179,0.0,0.0,89,0.00,CLR,,0.00,WeatherDisplay:10.37,2013-02-10 08:41:00,
2013-02-10 03:46:00,5.2,2.7,30.22,South,179,0.0,0.0,89,0.00,CLR,,0.00,WeatherDisplay:10.37,2013-02-10 08:46:00,
2013-02-10 03:52:00,5.2,2.7,30.22,South,179,0.0,0.0,89,0.00,CLR,,0.00,WeatherDisplay:10.37,2013-02-10 08:52:00,
2013-02-10 03:58:00,5.1,2.6,30.21,South,179,0.0,0.0,89,0.00,CLR,,0.00,WeatherDisplay:10.37,2013-02-10 08:58:00,
2013-02-10 04:03:00,4.9,2.4,30.21,South,179,0.0,0.0,89,0.00,CLR,,0.00,WeatherDisplay:10.37,2013-02-10 09:03:00,
2013-02-10 04:08:00,4.8,2.3,30.21,South,179,0.0,0.0,89,0.00,CLR,,0.00,WeatherDisplay:10.37,2013-02-10 09:08:00,
2013-02-10 04:13:00,4.5,2.0,30.21,South,179,0.0,0.0,89,0.00,CLR,,0.00,WeatherDisplay:10.37,2013-02-10 09:13:00,
2013-02-10 04:18:00,4.6,2.1,30.21,South,179,0.0,0.0,89,0.00,CLR,,0.00,WeatherDisplay:10.37,2013-02-10 09:18:00,
2013-02-10 04:23:00,4.9,2.6,30.21,South,179,0.0,0.0,90,0.00,CLR,,0.00,WeatherDisplay:10.37,2013-02-10 09:23:00,
2013-02-10 04:28:00,5.2,2.9,30.20,South,179,0.0,0.0,90,0.00,CLR,,0.00,WeatherDisplay:10.37,2013-02-10 09:28:00,
2013-02-10 04:33:00,5.3,3.0,30.21,South,179,0.0,0.0,90,0.00,CLR,,0.00,WeatherDisplay:10.37,2013-02-10 09:33:00,
2013-02-10 04:38:00,5.2,2.9,30.21,South,179,0.0,0.0,90,0.00,CLR,,0.00,WeatherDisplay:10.37,2013-02-10 09:38:00,
2013-02-10 04:43:00,5.1,2.8,30.21,South,179,0.0,0.0,90,0.00,CLR,,0.00,WeatherDisplay:10.37,2013-02-10 09:43:00,
2013-02-10 04:48:00,5.1,2.8,30.21,South,179,0.0,0.0,90,0.00,CLR,,0.00,WeatherDisplay:10.37,2013-02-10 09:48:00,
2013-02-10 04:53:00,5.1,2.8,30.20,South,179,0.0,0.0,90,0.00,CLR,,0.00,WeatherDisplay:10.37,2013-02-10 09:53:00,
2013-02-10 04:58:00,5.1,2.8,30.21,South,179,0.0,0.0,90,0.00,CLR,,0.00,WeatherDisplay:10.37,2013-02-10 09:58:00,
2013-02-10 05:03:00,5.0,2.7,30.20,South,179,0.0,0.0,90,0.00,CLR,,0.00,WeatherDisplay:10.37,2013-02-10 10:03:00,
2013-02-10 05:08:00,5.1,2.8,30.20,South,179,0.0,0.0,90,0.00,CLR,,0.00,WeatherDisplay:10.37,2013-02-10 10:08:00,
2013-02-10 05:13:00,5.2,2.9,30.20,South,179,1.1,0.0,90,0.00,CLR,,0.00,WeatherDisplay:10.37,2013-02-10 10:13:00,
2013-02-10 05:18:00,5.2,2.9,30.20,South,179,0.0,0.0,90,0.00,CLR,,0.00,WeatherDisplay:10.37,2013-02-10 10:18:00,
2013-02-10 05:23:00,5.2,2.9,30.21,South,179,0.0,0.0,90,0.00,CLR,,0.00,WeatherDisplay:10.37,2013-02-10 10:23:00,
2013-02-10 05:28:00,5.3,3.0,30.21,South,179,0.0,0.0,90,0.00,CLR,,0.00,WeatherDisplay:10.37,2013-02-10 10:28:00,
2013-02-10 05:33:00,5.3,3.0,30.20,South,179,0.0,0.0,90,0.00,CLR,,0.00,WeatherDisplay:10.37,2013-02-10 10:33:00,
2013-02-10 05:38:00,5.3,3.0,30.20,South,179,0.0,0.0,90,0.00,CLR,,0.00,WeatherDisplay:10.37,2013-02-10 10:38:00,
2013-02-10 05:43:00,5.3,3.0,30.20,South,179,0.0,0.0,90,0.00,CLR,,0.00,WeatherDisplay:10.37,2013-02-10 10:43:00,
2013-02-10 05:48:00,5.5,3.2,30.20,South,179,0.0,0.0,90,0.00,CLR,,0.00,WeatherDisplay:10.37,2013-02-10 10:48:00,
2013-02-10 05:53:00,5.6,3.3,30.20,South,179,0.0,0.0,90,0.00,CLR,,0.00,WeatherDisplay:10.37,2013-02-10 10:53:00,
2013-02-10 05:58:00,5.6,3.3,30.20,South,179,0.0,0.0,90,0.00,CLR,,0.00,WeatherDisplay:10.37,2013-02-10 10:58:00,
2013-02-10 06:03:00,5.8,3.5,30.20,South,179,0.0,0.0,90,0.00,CLR,,0.00,WeatherDisplay:10.37,2013-02-10 11:03:00,
2013-02-10 06:08:00,5.8,3.5,30.20,South,179,0.0,0.0,90,0.00,CLR,,0.00,WeatherDisplay:10.37,2013-02-10 11:08:00,
2013-02-10 06:13:00,5.8,3.5,30.20,South,179,0.0,0.0,90,0.00,CLR,,0.00,WeatherDisplay:10.37,2013-02-10 11:13:00,
2013-02-10 06:18:00,5.8,3.5,30.20,South,179,0.0,0.0,90,0.00,CLR,,0.00,WeatherDisplay:10.37,2013-02-10 11:18:00,
2013-02-10 06:23:00,5.8,3.5,30.20,South,179,0.0,0.0,90,0.00,CLR,,0.00,WeatherDisplay:10.37,2013-02-10 11:23:00,
2013-02-10 06:28:00,5.6,3.3,30.20,South,179,0.0,0.0,90,0.00,CLR,,0.00,WeatherDisplay:10.37,2013-02-10 11:28:00,
2013-02-10 06:33:00,5.5,3.0,30.19,South,179,1.1,1.1,89,0.00,CLR,,0.00,WeatherDisplay:10.37,2013-02-10 11:33:00,
2013-02-10 06:38:00,5.2,2.7,30.19,South,179,0.0,0.0,89,0.00,CLR,,0.00,WeatherDisplay:10.37,2013-02-10 11:38:00,
2013-02-10 06:43:00,5.0,2.5,30.19,South,179,0.0,0.0,89,0.00,CLR,,0.00,WeatherDisplay:10.37,2013-02-10 11:43:00,
2013-02-10 06:48:00,4.7,2.2,30.19,South,179,0.0,0.0,89,0.00,CLR,,0.00,WeatherDisplay:10.37,2013-02-10 11:48:00,
2013-02-10 06:53:00,4.7,2.2,30.19,South,179,0.0,0.0,89,0.00,CLR,,0.00,WeatherDisplay:10.37,2013-02-10 11:53:00,
2013-02-10 06:58:00,4.6,2.1,30.19,South,179,0.0,0.0,89,0.00,CLR,,0.00,WeatherDisplay:10.37,2013-02-10 11:58:00,
2013-02-10 07:03:00,4.4,1.9,30.19,South,179,0.0,0.0,89,0.00,CLR,,0.00,WeatherDisplay:10.37,2013-02-10 12:03:00,
2013-02-10 07:08:00,4.2,1.4,30.19,South,179,0.0,0.0,88,0.00,CLR,,0.00,WeatherDisplay:10.37,2013-02-10 12:08:00,
2013-02-10 07:13:00,3.9,1.1,30.19,South,179,0.0,0.0,88,0.00,CLR,,0.00,WeatherDisplay:10.37,2013-02-10 12:13:00,
2013-02-10 07:18:00,3.7,0.9,30.19,South,179,0.0,0.0,88,0.00,CLR,,0.00,WeatherDisplay:10.37,2013-02-10 12:18:00,
2013-02-10 07:23:00,3.6,0.8,30.19,South,179,0.0,0.0,88,0.00,CLR,,0.00,WeatherDisplay:10.37,2013-02-10 12:23:00,
2013-02-10 07:28:00,3.5,0.7,30.19,South,179,0.0,0.0,88,0.00,CLR,,0.00,WeatherDisplay:10.37,2013-02-10 12:28:00,
2013-02-10 07:33:00,3.3,0.5,30.19,South,179,0.0,0.0,88,0.00,CLR,,0.00,WeatherDisplay:10.37,2013-02-10 12:33:00,
2013-02-10 07:38:00,3.3,0.5,30.19,South,179,0.0,0.0,88,0.00,CLR,,0.00,WeatherDisplay:10.37,2013-02-10 12:38:00,
2013-02-10 07:44:00,3.4,0.6,30.18,South,179,0.0,0.0,88,0.00,CLR,,0.00,WeatherDisplay:10.37,2013-02-10 12:44:00,
2013-02-10 07:49:00,3.7,1.2,30.18,South,179,0.0,0.0,89,0.00,CLR,,0.00,WeatherDisplay:10.37,2013-02-10 12:49:00,
2013-02-10 07:54:00,3.6,0.8,30.18,South,179,0.0,0.0,88,0.00,CLR,,0.00,WeatherDisplay:10.37,2013-02-10 12:54:00,
2013-02-10 07:59:00,3.7,1.2,30.17,South,179,1.1,1.1,89,0.00,CLR,,0.00,WeatherDisplay:10.37,2013-02-10 12:59:00,
2013-02-10 08:04:00,4.0,1.5,30.18,South,179,0.0,0.0,89,0.00,CLR,,0.00,WeatherDisplay:10.37,2013-02-10 13:04:00,
2013-02-10 08:09:00,4.4,1.9,30.17,South,179,0.0,0.0,89,0.00,CLR,,0.00,WeatherDisplay:10.37,2013-02-10 13:09:00,
2013-02-10 08:14:00,4.5,2.0,30.17,South,179,1.1,1.1,89,0.00,CLR,,0.00,WeatherDisplay:10.37,2013-02-10 13:14:00,
2013-02-10 08:19:00,4.6,2.1,30.17,South,178,1.1,1.1,89,0.00,CLR,,0.00,WeatherDisplay:10.37,2013-02-10 13:19:00,
2013-02-10 08:24:00,5.0,2.5,30.17,South,178,0.0,0.0,89,0.00,CLR,,0.00,WeatherDisplay:10.37,2013-02-10 13:24:00,
2013-02-10 08:29:00,5.4,3.1,30.17,South,178,0.0,0.0,90,0.00,CLR,,0.00,WeatherDisplay:10.37,2013-02-10 13:29:00,
2013-02-10 08:34:00,5.9,3.6,30.17,South,178,0.0,0.0,90,0.00,CLR,,0.00,WeatherDisplay:10.37,2013-02-10 13:34:00,
2013-02-10 08:39:00,6.6,4.3,30.17,South,178,1.1,0.0,90,0.00,CLR,,0.00,WeatherDisplay:10.37,2013-02-10 13:39:00,
2013-02-10 08:44:00,7.4,5.1,30.17,South,178,0.0,0.0,90,0.00,CLR,,0.00,WeatherDisplay:10.37,2013-02-10 13:44:00,
2013-02-10 08:49:00,7.7,5.4,30.16,South,176,2.3,2.3,90,0.00,CLR,,0.00,WeatherDisplay:10.37,2013-02-10 13:49:00,
2013-02-10 08:54:00,8.1,5.8,30.16,South,176,0.0,0.0,90,0.00,CLR,,0.00,WeatherDisplay:10.37,2013-02-10 13:54:00,
2013-02-10 08:59:00,8.5,6.2,30.15,South,176,0.0,0.0,90,0.00,CLR,,0.00,WeatherDisplay:10.37,2013-02-10 13:59:00,
2013-02-10 09:04:00,8.9,6.6,30.15,South,176,0.0,0.0,90,0.00,CLR,,0.00,WeatherDisplay:10.37,2013-02-10 14:04:00,
2013-02-10 09:09:00,9.5,7.2,30.15,South,176,0.0,0.0,90,0.00,CLR,,0.00,WeatherDisplay:10.37,2013-02-10 14:09:00,
2013-02-10 09:14:00,9.9,7.6,30.15,South,176,0.0,0.0,90,0.00,CLR,,0.00,WeatherDisplay:10.37,2013-02-10 14:14:00,
2013-02-10 09:19:00,10.7,8.6,30.15,South,175,0.0,0.0,91,0.00,CLR,,0.00,WeatherDisplay:10.37,2013-02-10 14:19:00,
2013-02-10 09:24:00,11.5,9.4,30.14,South,175,0.0,0.0,91,0.00,CLR,,0.00,WeatherDisplay:10.37,2013-02-10 14:24:00,
2013-02-10 09:29:00,12.1,10.0,30.14,South,175,2.3,2.3,91,0.00,CLR,,0.00,WeatherDisplay:10.37,2013-02-10 14:29:00,
2013-02-10 09:34:00,12.8,10.7,30.13,SSE,167,3.5,3.5,91,0.00,CLR,,0.00,WeatherDisplay:10.37,2013-02-10 14:34:00,
2013-02-10 09:39:00,13.3,11.2,30.13,SSE,167,2.3,2.3,91,0.00,CLR,,0.00,WeatherDisplay:10.37,2013-02-10 14:39:00,
2013-02-10 09:44:00,13.9,11.8,30.12,SSE,167,0.0,0.0,91,0.00,CLR,,0.00,WeatherDisplay:10.37,2013-02-10 14:44:00,
2013-02-10 09:49:00,14.4,12.3,30.11,SSE,150,2.3,2.3,91,0.00,CLR,,0.00,WeatherDisplay:10.37,2013-02-10 14:49:00,
2013-02-10 09:54:00,14.9,12.7,30.11,SSE,152,0.0,0.0,91,0.00,CLR,,0.00,WeatherDisplay:10.37,2013-02-10 14:54:00,
2013-02-10 10:00:00,15.9,13.7,30.10,ESE,111,4.6,4.6,91,0.00,CLR,,0.00,WeatherDisplay:10.37,2013-02-10 15:00:00,
2013-02-10 10:05:00,16.5,14.3,30.09,ESE,114,0.0,0.0,91,0.00,CLR,,0.00,WeatherDisplay:10.37,2013-02-10 15:05:00,
2013-02-10 10:10:00,17.0,14.8,30.09,SE,125,3.5,3.5,91,0.00,CLR,,0.00,WeatherDisplay:10.37,2013-02-10 15:10:00,
2013-02-10 10:15:00,17.6,15.4,30.09,ESE,111,1.1,1.1,91,0.00,CLR,,0.00,WeatherDisplay:10.37,2013-02-10 15:15:00,
2013-02-10 10:20:00,18.0,15.8,30.08,ESE,115,1.1,1.1,91,0.00,CLR,,0.00,WeatherDisplay:10.37,2013-02-10 15:20:00,
2013-02-10 10:25:00,18.6,16.4,30.08,ESE,115,0.0,0.0,91,0.00,CLR,,0.00,WeatherDisplay:10.37,2013-02-10 15:25:00,
2013-02-10 10:30:00,19.6,17.1,30.07,ESE,115,3.5,3.5,90,0.00,CLR,,0.00,WeatherDisplay:10.37,2013-02-10 15:30:00,
2013-02-10 10:35:00,19.7,17.2,30.07,SE,126,5.8,5.8,90,0.00,CLR,,0.00,WeatherDisplay:10.37,2013-02-10 15:35:00,
2013-02-10 10:40:00,19.7,17.0,30.09,SE,127,1.1,0.0,89,0.00,CLR,,0.00,WeatherDisplay:10.37,2013-02-10 15:40:00,
2013-02-10 10:45:00,20.3,17.6,30.09,SE,134,1.0,1.4,89,0.00,CLR,,0.00,WeatherDisplay:10.37,2013-02-10 15:45:00,
2013-02-10 10:50:00,20.8,18.1,30.09,SE,136,4.6,4.6,89,0.00,CLR,,0.00,WeatherDisplay:10.37,2013-02-10 15:50:00,
2013-02-10 10:56:00,21.0,17.7,30.10,SSW,207,10.4,10.4,87,0.00,CLR,,0.00,WeatherDisplay:10.37,2013-02-10 15:56:00,
2013-02-10 11:01:00,20.8,17.3,30.10,SSE,160,5.8,5.8,86,0.00,CLR,,0.00,WeatherDisplay:10.37,2013-02-10 16:01:00,
2013-02-10 11:06:00,20.7,17.2,30.10,SSE,159,3.5,3.5,86,0.00,CLR,,0.00,WeatherDisplay:10.37,2013-02-10 16:06:00,
2013-02-10 11:11:00,20.7,17.2,30.10,South,173,0.0,0.0,86,0.00,CLR,,0.00,WeatherDisplay:10.37,2013-02-10 16:11:00,
2013-02-10 11:16:00,21.2,17.7,30.10,SSE,168,5.8,5.8,86,0.00,CLR,,0.00,WeatherDisplay:10.37,2013-02-10 16:16:00,
2013-02-10 11:21:00,21.8,18.0,30.09,SSE,167,1.1,0.0,85,0.00,CLR,,0.00,WeatherDisplay:10.37,2013-02-10 16:21:00,
2013-02-10 11:26:00,22.5,18.7,30.09,SE,128,3.5,3.5,85,0.00,CLR,,0.00,WeatherDisplay:10.37,2013-02-10 16:26:00,
2013-02-10 11:31:00,22.9,18.8,30.09,SSE,165,2.3,2.3,84,0.00,CLR,,0.00,WeatherDisplay:10.37,2013-02-10 16:31:00,
2013-02-10 11:36:00,23.5,19.4,30.09,SSE,155,3.5,3.5,84,0.00,CLR,,0.00,WeatherDisplay:10.37,2013-02-10 16:36:00,
2013-02-10 11:41:00,23.8,19.1,30.09,South,184,3.5,3.5,82,0.00,CLR,,0.00,WeatherDisplay:10.37,2013-02-10 16:41:00,
2013-02-10 11:46:00,24.3,19.6,30.09,South,181,3.5,3.5,82,0.00,CLR,,0.00,WeatherDisplay:10.37,2013-02-10 16:46:00,
2013-02-10 11:51:00,24.9,20.2,30.08,SE,137,3.5,3.5,82,0.00,CLR,,0.00,WeatherDisplay:10.37,2013-02-10 16:51:00,
2013-02-10 11:56:00,25.4,20.4,30.08,SE,138,2.3,2.3,81,0.00,CLR,,0.00,WeatherDisplay:10.37,2013-02-10 16:56:00,
2013-02-10 12:01:00,26.0,20.7,30.08,SE,141,1.1,0.0,80,0.00,CLR,,0.00,WeatherDisplay:10.37,2013-02-10 17:01:00,
2013-02-10 12:06:00,26.4,21.1,30.08,SE,142,1.1,0.0,80,0.00,CLR,,0.00,WeatherDisplay:10.37,2013-02-10 17:06:00,
2013-02-10 12:11:00,26.6,21.0,30.08,SE,141,0.0,0.0,79,0.00,CLR,,0.00,WeatherDisplay:10.37,2013-02-10 17:11:00,
2013-02-10 12:16:00,26.7,20.8,30.08,SE,144,2.3,0.0,78,0.00,CLR,,0.00,WeatherDisplay:10.37,2013-02-10 17:16:00,
2013-02-10 12:21:00,26.8,20.9,30.07,SE,145,0.0,0.1,78,0.00,CLR,,0.00,WeatherDisplay:10.37,2013-02-10 17:21:00,
2013-02-10 12:26:00,27.0,21.1,30.06,SE,145,0.0,0.0,78,0.00,CLR,,0.00,WeatherDisplay:10.37,2013-02-10 17:26:00,
2013-02-10 12:31:00,27.1,21.2,30.05,SE,143,1.1,0.0,78,0.00,CLR,,0.00,WeatherDisplay:10.37,2013-02-10 17:31:00,
2013-02-10 12:36:00,27.0,21.1,30.05,SE,142,2.3,2.3,78,0.00,CLR,,0.00,WeatherDisplay:10.37,2013-02-10 17:36:00,
2013-02-10 12:41:00,27.0,21.1,30.05,SE,142,0.0,0.0,78,0.00,CLR,,0.00,WeatherDisplay:10.37,2013-02-10 17:41:00,
2013-02-10 12:46:00,27.0,21.1,30.04,SE,140,2.3,2.3,78,0.00,CLR,,0.00,WeatherDisplay:10.37,2013-02-10 17:46:00,
2013-02-10 12:52:00,27.3,21.6,30.03,SE,141,1.1,0.0,79,0.00,CLR,,0.00,WeatherDisplay:10.37,2013-02-10 17:52:00,
2013-02-10 12:57:00,27.5,21.5,30.02,SE,138,3.5,3.5,78,0.00,CLR,,0.00,WeatherDisplay:10.37,2013-02-10 17:57:00,
2013-02-10 13:02:00,27.2,21.2,30.02,ESE,105,3.5,3.5,78,0.00,CLR,,0.00,WeatherDisplay:10.37,2013-02-10 18:02:00,
2013-02-10 13:07:00,27.3,21.3,30.01,ESE,119,4.6,4.6,78,0.00,CLR,,0.00,WeatherDisplay:10.37,2013-02-10 18:07:00,
2013-02-10 13:12:00,27.6,21.9,30.00,ESE,119,1.1,1.1,79,0.00,CLR,,0.00,WeatherDisplay:10.37,2013-02-10 18:12:00,
2013-02-10 13:17:00,28.0,22.0,30.00,SE,131,3.5,3.5,78,0.01,RA,,0.01,WeatherDisplay:10.37,2013-02-10 18:17:00,
2013-02-10 13:22:00,28.0,22.0,30.00,ESE,107,3.5,3.5,78,0.01,RA,,0.01,WeatherDisplay:10.37,2013-02-10 18:22:00,
2013-02-10 13:27:00,27.9,21.9,30.00,ESE,123,2.3,2.3,78,0.01,CLR,,0.01,WeatherDisplay:10.37,2013-02-10 18:27:00,
2013-02-10 13:32:00,28.2,22.2,29.99,ESE,121,2.3,2.3,78,0.01,CLR,,0.01,WeatherDisplay:10.37,2013-02-10 18:32:00,
2013-02-10 13:37:00,28.4,22.4,29.99,SE,131,4.6,4.6,78,0.01,CLR,,0.01,WeatherDisplay:10.37,2013-02-10 18:37:00,
2013-02-10 13:42:00,28.5,22.5,29.99,SSE,153,2.3,2.3,78,0.01,CLR,,0.01,WeatherDisplay:10.37,2013-02-10 18:42:00,
2013-02-10 13:47:00,28.8,22.8,29.98,SE,145,2.3,2.3,78,0.01,CLR,,0.01,WeatherDisplay:10.37,2013-02-10 18:47:00,
2013-02-10 13:52:00,29.1,23.1,29.98,SE,146,0.0,0.0,78,0.01,CLR,,0.01,WeatherDisplay:10.37,2013-02-10 18:52:00,
2013-02-10 13:57:00,29.3,23.3,29.98,SE,146,1.1,1.1,78,0.01,CLR,,0.01,WeatherDisplay:10.37,2013-02-10 18:57:00,
2013-02-10 14:02:00,29.4,23.1,29.97,SE,135,1.1,1.1,77,0.01,CLR,,0.01,WeatherDisplay:10.37,2013-02-10 19:02:00,
2013-02-10 14:07:00,29.4,23.1,29.97,SE,134,2.3,2.3,77,0.01,CLR,,0.01,WeatherDisplay:10.37,2013-02-10 19:07:00,
2013-02-10 14:12:00,29.5,23.2,29.97,SE,134,2.3,2.3,77,0.01,CLR,,0.01,WeatherDisplay:10.37,2013-02-10 19:12:00,
2013-02-10 14:17:00,29.7,23.4,29.96,SE,134,2.3,2.3,77,0.00,CLR,,0.01,WeatherDisplay:10.37,2013-02-10 19:17:00,
2013-02-10 14:22:00,30.1,23.8,29.96,SE,142,3.5,3.5,77,0.00,CLR,,0.01,WeatherDisplay:10.37,2013-02-10 19:22:00,
2013-02-10 14:27:00,30.3,24.0,29.95,SE,124,5.8,5.8,77,0.00,CLR,,0.01,WeatherDisplay:10.37,2013-02-10 19:27:00,
2013-02-10 14:32:00,30.3,24.0,29.95,ESE,121,4.0,4.0,77,0.00,CLR,,0.01,WeatherDisplay:10.37,2013-02-10 19:32:00,
2013-02-10 14:37:00,30.3,24.0,29.95,SE,136,5.8,5.8,77,0.00,CLR,,0.01,WeatherDisplay:10.37,2013-02-10 19:37:00,
2013-02-10 14:42:00,30.4,24.1,29.95,SE,126,3.5,3.5,77,0.00,CLR,,0.01,WeatherDisplay:10.37,2013-02-10 19:42:00,
2013-02-10 14:47:00,30.6,24.2,29.95,SSE,152,0.0,0.0,77,0.00,CLR,,0.01,WeatherDisplay:10.37,2013-02-10 19:47:00,
2013-02-10 14:52:00,30.7,24.3,29.94,South,182,5.8,5.8,77,0.00,CLR,,0.01,WeatherDisplay:10.37,2013-02-10 19:52:00,
2013-02-10 14:57:00,30.7,24.3,29.93,SSW,192,4.6,4.6,77,0.00,CLR,,0.01,WeatherDisplay:10.37,2013-02-10 19:57:00,
2013-02-10 15:02:00,30.7,24.7,29.93,South,182,3.5,3.5,78,0.00,CLR,,0.01,WeatherDisplay:10.37,2013-02-10 20:02:00,
2013-02-10 15:07:00,30.6,24.6,29.93,SE,130,3.5,3.5,78,0.00,CLR,,0.01,WeatherDisplay:10.37,2013-02-10 20:07:00,
2013-02-10 15:12:00,30.6,24.9,29.93,SE,139,2.3,2.3,79,0.00,CLR,,0.01,WeatherDisplay:10.37,2013-02-10 20:12:00,
2013-02-10 15:17:00,30.7,25.0,29.92,SE,128,3.5,3.5,79,0.00,CLR,,0.01,WeatherDisplay:10.37,2013-02-10 20:17:00,
2013-02-10 15:22:00,30.8,25.1,29.92,SSE,155,3.5,3.5,79,0.00,CLR,,0.01,WeatherDisplay:10.37,2013-02-10 20:22:00,
2013-02-10 15:27:00,30.9,25.2,29.92,SSE,149,5.8,5.8,79,0.00,CLR,,0.01,WeatherDisplay:10.37,2013-02-10 20:27:00,
2013-02-10 15:32:00,31.0,25.6,29.91,ESE,122,3.0,3.0,80,0.00,CLR,,0.01,WeatherDisplay:10.37,2013-02-10 20:32:00,
2013-02-10 15:37:00,31.2,25.7,29.91,ESE,109,6.9,6.9,80,0.00,CLR,,0.01,WeatherDisplay:10.37,2013-02-10 20:37:00,
2013-02-10 15:42:00,31.4,25.9,29.91,SE,142,1.1,1.1,80,0.00,CLR,,0.01,WeatherDisplay:10.37,2013-02-10 20:42:00,
2013-02-10 15:47:00,31.5,25.7,29.91,SE,146,2.3,2.3,79,0.00,CLR,,0.01,WeatherDisplay:10.37,2013-02-10 20:47:00,
2013-02-10 15:52:00,31.7,25.9,29.90,SSE,150,0.0,0.0,79,0.00,CLR,,0.01,WeatherDisplay:10.37,2013-02-10 20:52:00,
2013-02-10 15:57:00,31.8,26.0,29.90,SE,146,4.6,0.0,79,0.00,CLR,,0.01,WeatherDisplay:10.37,2013-02-10 20:57:00,
2013-02-10 16:02:00,31.9,26.1,29.90,SE,129,0.0,0.5,79,0.00,CLR,,0.01,WeatherDisplay:10.37,2013-02-10 21:02:00,
2013-02-10 16:07:00,32.0,26.2,29.89,ESE,115,4.0,4.0,79,0.00,CLR,,0.01,WeatherDisplay:10.37,2013-02-10 21:07:00,
2013-02-10 16:12:00,32.1,26.3,29.88,SE,128,3.5,3.5,79,0.00,CLR,,0.01,WeatherDisplay:10.37,2013-02-10 21:12:00,
2013-02-10 16:17:00,32.2,26.7,29.88,SSE,155,5.0,5.0,80,0.00,CLR,,0.01,WeatherDisplay:10.37,2013-02-10 21:17:00,
2013-02-10 16:22:00,32.2,26.7,29.87,ESE,123,4.6,4.6,80,0.00,CLR,,0.01,WeatherDisplay:10.37,2013-02-10 21:22:00,
2013-02-10 16:28:00,32.2,26.7,29.87,SSE,161,4.6,4.6,80,0.00,CLR,,0.01,WeatherDisplay:10.37,2013-02-10 21:28:00,
2013-02-10 16:33:00,32.3,26.8,29.87,SE,144,4.6,4.6,80,0.00,CLR,,0.01,WeatherDisplay:10.37,2013-02-10 21:33:00,
2013-02-10 16:38:00,32.4,26.9,29.87,SE,146,3.5,3.5,80,0.00,CLR,,0.01,WeatherDisplay:10.37,2013-02-10 21:38:00,
2013-02-10 16:43:00,32.4,27.2,29.86,SSE,155,4.6,4.6,81,0.00,CLR,,0.01,WeatherDisplay:10.37,2013-02-10 21:43:00,
2013-02-10 16:48:00,32.4,27.5,29.86,SE,133,3.0,3.0,82,0.00,CLR,,0.01,WeatherDisplay:10.37,2013-02-10 21:48:00,
2013-02-10 16:53:00,32.5,27.6,29.85,SE,142,2.3,2.3,82,0.00,CLR,,0.01,WeatherDisplay:10.37,2013-02-10 21:53:00,
2013-02-10 16:58:00,32.4,27.8,29.85,SSE,152,3.5,3.5,83,0.00,CLR,,0.01,WeatherDisplay:10.37,2013-02-10 21:58:00,
2013-02-10 17:03:00,32.4,28.1,29.85,SE,140,2.3,0.0,84,0.00,CLR,,0.01,WeatherDisplay:10.37,2013-02-10 22:03:00,
2013-02-10 17:08:00,32.4,28.4,29.85,South,186,3.0,3.0,85,0.00,CLR,,0.01,WeatherDisplay:10.37,2013-02-10 22:08:00,
2013-02-10 17:13:00,32.3,28.6,29.84,SSE,165,3.5,3.5,86,0.00,CLR,,0.01,WeatherDisplay:10.37,2013-02-10 22:13:00,
2013-02-10 17:19:00,32.1,28.9,29.83,ESE,118,2.3,2.3,88,0.00,CLR,,0.01,WeatherDisplay:10.37,2013-02-10 22:19:00,
2013-02-10 17:24:00,32.2,29.0,29.83,SSE,168,3.5,0.0,88,0.00,CLR,,0.01,WeatherDisplay:10.37,2013-02-10 22:24:00,
2013-02-10 17:29:00,32.2,29.0,29.83,SSE,159,3.5,0.0,88,0.00,CLR,,0.01,WeatherDisplay:10.37,2013-02-10 22:29:00,
2013-02-10 17:34:00,32.2,29.3,29.83,South,180,3.5,3.5,89,0.00,CLR,,0.01,WeatherDisplay:10.37,2013-02-10 22:34:00,
2013-02-10 17:39:00,32.2,29.3,29.83,SE,142,3.0,3.0,89,0.00,CLR,,0.01,WeatherDisplay:10.37,2013-02-10 22:39:00,
2013-02-10 17:44:00,32.2,29.3,29.83,SE,125,3.0,3.0,89,0.00,CLR,,0.01,WeatherDisplay:10.37,2013-02-10 22:44:00,
2013-02-10 17:49:00,32.1,29.5,29.82,SE,138,0.0,0.0,90,0.00,CLR,,0.01,WeatherDisplay:10.37,2013-02-10 22:49:00,
2013-02-10 17:54:00,32.0,29.4,29.82,SSE,149,3.5,3.5,90,0.00,CLR,,0.01,WeatherDisplay:10.37,2013-02-10 22:54:00,
2013-02-10 17:59:00,32.0,29.7,29.81,SE,131,5.8,0.0,91,0.00,CLR,,0.01,WeatherDisplay:10.37,2013-02-10 22:59:00,
2013-02-10 18:04:00,32.0,29.7,29.81,SE,142,3.5,3.5,91,0.00,CLR,,0.01,WeatherDisplay:10.37,2013-02-10 23:04:00,
2013-02-10 18:09:00,32.0,29.7,29.81,SE,138,3.5,3.5,91,0.00,CLR,,0.01,WeatherDisplay:10.37,2013-02-10 23:09:00,
2013-02-10 18:14:00,32.0,29.7,29.80,ESE,115,3.5,3.5,91,0.00,CLR,,0.01,WeatherDisplay:10.37,2013-02-10 23:14:00,
2013-02-10 18:19:00,32.0,29.7,29.79,SE,138,2.3,2.3,91,0.00,CLR,,0.01,WeatherDisplay:10.37,2013-02-10 23:19:00,
2013-02-10 18:24:00,32.0,29.7,29.79,SSE,152,3.5,3.5,91,0.00,CLR,,0.01,WeatherDisplay:10.37,2013-02-10 23:24:00,
2013-02-10 18:29:00,32.0,29.7,29.79,SSE,155,1.1,1.1,91,0.00,CLR,,0.01,WeatherDisplay:10.37,2013-02-10 23:29:00,
2013-02-10 18:34:00,32.0,29.7,29.79,SE,144,3.5,4.0,91,0.00,CLR,,0.01,WeatherDisplay:10.37,2013-02-10 23:34:00,
2013-02-10 18:39:00,32.1,29.8,29.79,SE,129,4.6,4.6,91,0.00,CLR,,0.01,WeatherDisplay:10.37,2013-02-10 23:39:00,
2013-02-10 18:44:00,32.2,29.9,29.78,SE,140,3.5,3.5,91,0.00,CLR,,0.01,WeatherDisplay:10.37,2013-02-10 23:44:00,
2013-02-10 18:49:00,32.2,29.9,29.78,SSE,160,5.8,5.8,91,0.00,CLR,,0.01,WeatherDisplay:10.37,2013-02-10 23:49:00,
2013-02-10 18:54:00,32.2,29.9,29.77,SE,138,10.4,10.4,91,0.00,CLR,,0.01,WeatherDisplay:10.37,2013-02-10 23:54:00,
2013-02-10 18:59:00,32.2,29.9,29.77,SSE,163,3.5,3.5,91,0.00,CLR,,0.01,WeatherDisplay:10.37,2013-02-10 23:59:00,
2013-02-10 19:04:00,32.2,30.1,29.78,SE,146,3.5,3.5,92,0.00,CLR,,0.01,WeatherDisplay:10.37,2013-02-11 00:04:00,
2013-02-10 19:09:00,32.3,30.2,29.78,SE,132,3.5,3.5,92,0.00,CLR,,0.01,WeatherDisplay:10.37,2013-02-11 00:09:00,
2013-02-10 19:14:00,32.3,30.2,29.78,ESE,121,6.0,6.0,92,0.00,CLR,,0.01,WeatherDisplay:10.37,2013-02-11 00:14:00,
2013-02-10 19:19:00,32.4,30.6,29.78,South,173,2.3,2.3,93,0.00,CLR,,0.01,WeatherDisplay:10.37,2013-02-11 00:19:00,
2013-02-10 19:24:00,32.5,30.7,29.77,SSE,161,3.5,3.5,93,0.00,CLR,,0.01,WeatherDisplay:10.37,2013-02-11 00:24:00,
2013-02-10 19:29:00,32.5,30.7,29.76,SSE,163,3.5,3.5,93,0.00,CLR,,0.01,WeatherDisplay:10.37,2013-02-11 00:29:00,
2013-02-10 19:34:00,32.7,30.9,29.76,SSE,152,4.6,4.6,93,0.00,CLR,,0.01,WeatherDisplay:10.37,2013-02-11 00:34:00,
2013-02-10 19:39:00,32.8,31.0,29.76,South,189,6.9,6.9,93,0.00,CLR,,0.01,WeatherDisplay:10.37,2013-02-11 00:39:00,
2013-02-10 19:44:00,32.9,31.1,29.77,South,185,3.5,0.0,93,0.00,CLR,,0.01,WeatherDisplay:10.37,2013-02-11 00:44:00,
2013-02-10 19:49:00,33.0,31.2,29.76,SSW,192,1.1,1.1,93,0.00,CLR,,0.01,WeatherDisplay:10.37,2013-02-11 00:49:00,
2013-02-10 19:54:00,33.0,31.2,29.76,SSW,196,5.0,5.0,93,0.00,CLR,,0.01,WeatherDisplay:10.37,2013-02-11 00:54:00,
2013-02-10 19:59:00,33.1,31.3,29.75,SSW,201,9.2,9.2,93,0.00,CLR,,0.01,WeatherDisplay:10.37,2013-02-11 00:59:00,
2013-02-10 20:04:00,33.2,31.7,29.75,SW,225,4.6,4.6,94,0.00,CLR,,0.01,WeatherDisplay:10.37,2013-02-11 01:04:00,
2013-02-10 20:09:00,33.3,31.8,29.74,South,190,15.0,15.0,94,0.00,CLR,,0.01,WeatherDisplay:10.37,2013-02-11 01:09:00,
2013-02-10 20:14:00,33.4,31.9,29.74,SSE,160,5.8,5.8,94,0.00,CLR,,0.01,WeatherDisplay:10.37,2013-02-11 01:14:00,
2013-02-10 20:19:00,33.4,31.9,29.74,SSW,201,11.5,11.5,94,0.00,CLR,,0.01,WeatherDisplay:10.37,2013-02-11 01:19:00,
2013-02-10 20:24:00,33.5,32.0,29.73,South,173,8.0,8.0,94,0.00,CLR,,0.01,WeatherDisplay:10.37,2013-02-11 01:24:00,
2013-02-10 20:29:00,33.5,32.0,29.73,SW,217,9.2,9.2,94,0.00,CLR,,0.01,WeatherDisplay:10.37,2013-02-11 01:29:00,
2013-02-10 20:34:00,33.5,32.0,29.72,SW,219,12.7,12.7,94,0.00,CLR,,0.01,WeatherDisplay:10.37,2013-02-11 01:34:00,
2013-02-10 20:39:00,33.6,32.1,29.72,SSW,209,6.0,6.0,94,0.00,CLR,,0.01,WeatherDisplay:10.37,2013-02-11 01:39:00,
2013-02-10 20:44:00,33.6,32.1,29.71,South,173,10.4,10.4,94,0.00,CLR,,0.01,WeatherDisplay:10.37,2013-02-11 01:44:00,
2013-02-10 20:49:00,33.6,32.1,29.71,SSW,206,6.9,6.9,94,0.00,CLR,,0.01,WeatherDisplay:10.37,2013-02-11 01:49:00,
2013-02-10 20:54:00,33.6,32.1,29.71,SSW,212,6.9,6.9,94,0.00,CLR,,0.01,WeatherDisplay:10.37,2013-02-11 01:54:00,
2013-02-10 20:59:00,33.7,32.2,29.70,South,180,11.5,11.5,94,0.00,CLR,,0.01,WeatherDisplay:10.37,2013-02-11 01:59:00,
2013-02-10 21:04:00,33.7,32.4,29.69,SSE,167,11.5,11.5,95,0.00,CLR,,0.01,WeatherDisplay:10.37,2013-02-11 02:04:00,
2013-02-10 21:09:00,33.6,32.1,29.69,SW,214,6.9,6.9,94,0.00,CLR,,0.01,WeatherDisplay:10.37,2013-02-11 02:09:00,
2013-02-10 21:14:00,33.6,32.3,29.69,South,188,3.5,3.5,95,0.00,CLR,,0.01,WeatherDisplay:10.37,2013-02-11 02:14:00,
2013-02-10 21:19:00,33.7,32.4,29.69,South,182,11.0,11.0,95,0.00,CLR,,0.01,WeatherDisplay:10.37,2013-02-11 02:19:00,
2013-02-10 21:24:00,33.8,32.5,29.68,SSW,203,5.8,5.8,95,0.00,CLR,,0.01,WeatherDisplay:10.37,2013-02-11 02:24:00,
2013-02-10 21:29:00,33.9,32.6,29.68,SW,229,14.0,14.0,95,0.00,CLR,,0.01,WeatherDisplay:10.37,2013-02-11 02:29:00,
2013-02-10 21:34:00,34.0,32.7,29.68,SW,216,9.2,9.2,95,0.00,CLR,,0.01,WeatherDisplay:10.37,2013-02-11 02:34:00,
2013-02-10 21:39:00,34.1,32.8,29.68,SSW,197,12.7,12.7,95,0.00,CLR,,0.01,WeatherDisplay:10.37,2013-02-11 02:39:00,
2013-02-10 21:44:00,34.2,32.9,29.68,SSW,209,11.5,11.5,95,0.00,CLR,,0.01,WeatherDisplay:10.37,2013-02-11 02:44:00,
2013-02-10 21:49:00,34.2,32.9,29.67,SSW,199,10.0,10.0,95,0.00,CLR,,0.01,WeatherDisplay:10.37,2013-02-11 02:49:00,
2013-02-10 21:54:00,34.3,33.0,29.67,South,186,11.5,11.5,95,0.00,CLR,,0.01,WeatherDisplay:10.37,2013-02-11 02:54:00,
2013-02-10 21:59:00,34.3,33.0,29.66,SW,230,5.8,5.8,95,0.00,CLR,,0.01,WeatherDisplay:10.37,2013-02-11 02:59:00,
2013-02-10 22:04:00,34.3,33.0,29.66,South,186,10.4,10.4,95,0.00,CLR,,0.01,WeatherDisplay:10.37,2013-02-11 03:04:00,
2013-02-10 22:09:00,34.4,33.1,29.66,South,189,11.5,11.5,95,0.00,CLR,,0.01,WeatherDisplay:10.37,2013-02-11 03:09:00,
2013-02-10 22:14:00,34.4,33.1,29.66,SSW,192,9.2,9.2,95,0.00,CLR,,0.01,WeatherDisplay:10.37,2013-02-11 03:14:00,
2013-02-10 22:19:00,34.4,33.1,29.65,SSW,206,3.5,3.5,95,0.00,CLR,,0.01,WeatherDisplay:10.37,2013-02-11 03:19:00,
2013-02-10 22:24:00,34.4,33.1,29.65,SW,215,0.0,0.0,95,0.00,CLR,,0.01,WeatherDisplay:10.37,2013-02-11 03:24:00,
2013-02-10 22:29:00,34.4,33.1,29.65,SSW,204,9.2,9.2,95,0.00,CLR,,0.01,WeatherDisplay:10.37,2013-02-11 03:29:00,
2013-02-10 22:34:00,34.5,33.5,29.65,SSW,194,3.5,3.5,96,0.00,CLR,,0.01,WeatherDisplay:10.37,2013-02-11 03:34:00,
2013-02-10 22:39:00,34.5,33.5,29.65,SW,217,3.5,0.0,96,0.00,CLR,,0.01,WeatherDisplay:10.37,2013-02-11 03:39:00,
2013-02-10 22:44:00,34.6,33.6,29.65,SSW,196,9.2,9.2,96,0.00,CLR,,0.01,WeatherDisplay:10.37,2013-02-11 03:44:00,
2013-02-10 22:49:00,34.8,33.8,29.64,SSW,210,4.6,4.6,96,0.00,CLR,,0.01,WeatherDisplay:10.37,2013-02-11 03:49:00,
2013-02-10 22:54:00,35.0,34.0,29.64,WSW,242,7.0,7.0,96,0.00,CLR,,0.01,WeatherDisplay:10.37,2013-02-11 03:54:00,
2013-02-10 22:59:00,35.3,34.3,29.63,WSW,244,5.8,5.8,96,0.00,CLR,,0.01,WeatherDisplay:10.37,2013-02-11 03:59:00,
2013-02-10 23:04:00,35.5,34.5,29.63,WSW,242,6.0,6.0,96,0.00,CLR,,0.01,WeatherDisplay:10.37,2013-02-11 04:04:00,
2013-02-10 23:09:00,35.7,34.7,29.62,SW,228,11.5,11.5,96,0.00,CLR,,0.01,WeatherDisplay:10.37,2013-02-11 04:09:00,
2013-02-10 23:14:00,36.0,35.0,29.62,SSW,207,13.8,13.8,96,0.00,CLR,,0.01,WeatherDisplay:10.37,2013-02-11 04:14:00,
2013-02-10 23:19:00,36.1,35.1,29.61,SSW,194,11.5,11.5,96,0.00,CLR,,0.01,WeatherDisplay:10.37,2013-02-11 04:19:00,
2013-02-10 23:24:00,36.3,35.3,29.61,SSW,211,7.0,7.0,96,0.00,CLR,,0.01,WeatherDisplay:10.37,2013-02-11 04:24:00,
2013-02-10 23:29:00,36.4,35.4,29.61,SW,225,13.8,13.8,96,0.00,CLR,,0.01,WeatherDisplay:10.37,2013-02-11 04:29:00,
2013-02-10 23:34:00,36.6,35.6,29.61,WSW,237,3.5,3.5,96,0.00,CLR,,0.01,WeatherDisplay:10.37,2013-02-11 04:34:00,
2013-02-10 23:39:00,36.7,35.7,29.61,WSW,257,4.6,4.6,96,0.00,CLR,,0.01,WeatherDisplay:10.37,2013-02-11 04:39:00,
2013-02-10 23:44:00,36.7,35.7,29.60,WSW,238,4.6,4.6,96,0.00,CLR,,0.01,WeatherDisplay:10.37,2013-02-11 04:44:00,
2013-02-10 23:49:00,36.8,35.5,29.60,SW,219,5.8,5.8,95,0.00,CLR,,0.01,WeatherDisplay:10.37,2013-02-11 04:49:00,
2013-02-10 23:54:00,37.0,35.7,29.60,SW,226,15.0,15.0,95,0.00,CLR,,0.01,WeatherDisplay:10.37,2013-02-11 04:54:00,
2013-02-10 23:59:00,37.1,36.1,29.59,SW,224,10.4,10.4,96,0.00,CLR,,0.01,WeatherDisplay:10.37,2013-02-11 04:59:00,